Time;durP1;ratioP1;P1;durP2;ratioP2;P2;SDS_P1;SDS_P2;PMS_P1;PMS_P2;Temp;Humidity;BMP_temperature;BMP_pressure;BME280_temperature;BME280_humidity;BME280_pressure;Samples;Min_cycle;Max_cycle;Signal;HPM_P1;HPM_P2
2024/02/13 00:00:59;;;;;;;11.68;5.90;;;5.00;99.90;;;;;;5015822;28;20096;-49
2024/02/13 00:03:26;;;;;;;9.38;5.25;;;5.00;99.90;;;;;;4997705;28;20057;-48
2024/02/13 00:05:53;;;;;;;10.30;5.38;;;5.00;99.90;;;;;;5013178;28;20509;-46
2024/02/13 00:08:20;;;;;;;8.25;4.82;;;4.90;99.90;;;;;;5013621;28;20054;-49
2024/02/13 00:10:56;;;;;;;10.68;5.10;;;4.90;99.90;;;;;;5010387;28;20415;-49
2024/02/13 00:13:23;;;;;;;9.60;4.97;;;4.90;99.90;;;;;;5010187;28;20136;-51
2024/02/13 00:15:50;;;;;;;9.45;5.03;;;4.80;99.90;;;;;;5009290;28;20060;-47
2024/02/13 00:18:18;;;;;;;8.75;5.25;;;4.80;99.90;;;;;;5009482;28;20052;-43
2024/02/13 00:20:45;;;;;;;13.65;5.15;;;4.70;99.90;;;;;;5009554;28;20073;-45
2024/02/13 00:23:12;;;;;;;13.63;5.38;;;4.70;99.90;;;;;;5010569;28;20049;-44
2024/02/13 00:25:39;;;;;;;11.13;5.50;;;4.60;99.90;;;;;;5010926;28;20069;-45
2024/02/13 00:28:06;;;;;;;10.25;5.72;;;4.60;99.90;;;;;;5013294;28;20038;-45
2024/02/13 00:30:35;;;;;;;10.73;5.15;;;4.50;99.90;;;;;;5012985;28;20065;-48
2024/02/13 00:33:21;;;;;;;10.70;5.47;;;4.50;99.90;;;;;;5008058;28;20049;-51
2024/02/13 00:36:08;;;;;;;11.35;5.47;;;4.50;99.90;;;;;;5008986;28;20045;-46
2024/02/13 00:38:35;;;;;;;10.23;5.20;;;4.50;99.90;;;;;;5008794;28;20049;-52
2024/02/13 00:41:04;;;;;;;10.77;4.97;;;4.50;99.90;;;;;;5010433;28;20114;-46
2024/02/13 00:43:31;;;;;;;9.82;5.28;;;4.50;99.90;;;;;;5011060;28;20299;-51
2024/02/13 00:45:58;;;;;;;10.68;5.13;;;4.50;99.90;;;;;;5007385;28;20103;-43
2024/02/13 00:48:26;;;;;;;11.30;5.88;;;4.50;99.90;;;;;;5009027;28;20495;-42
2024/02/13 00:50:53;;;;;;;16.40;6.43;;;4.50;99.90;;;;;;5008407;28;20098;-45
2024/02/13 00:53:21;;;;;;;14.43;5.72;;;4.60;99.90;;;;;;5008726;28;20062;-50
2024/02/13 00:55:50;;;;;;;13.23;5.68;;;4.70;99.90;;;;;;5008967;28;20045;-48
2024/02/13 00:58:17;;;;;;;8.57;5.15;;;4.70;99.90;;;;;;5007627;28;20499;-48
2024/02/13 01:00:45;;;;;;;13.32;4.90;;;4.70;99.90;;;;;;5007756;28;20041;-49
2024/02/13 01:03:12;;;;;;;10.02;4.60;;;4.80;99.90;;;;;;5009375;28;20081;-46
2024/02/13 01:05:41;;;;;;;12.57;5.22;;;4.80;99.90;;;;;;5010461;28;20069;-46
2024/02/13 01:08:10;;;;;;;10.65;4.93;;;4.90;99.90;;;;;;5008704;28;20068;-45
2024/02/13 01:10:38;;;;;;;15.55;5.18;;;4.90;99.90;;;;;;5008038;28;20042;-46
2024/02/13 01:13:05;;;;;;;15.00;5.57;;;5.00;99.90;;;;;;5007825;28;20503;-50
2024/02/13 01:15:32;;;;;;;11.68;5.00;;;5.00;99.90;;;;;;5006950;28;20515;-43
2024/02/13 01:17:59;;;;;;;8.88;5.05;;;5.00;99.90;;;;;;5006988;28;20056;-48
2024/02/13 01:20:26;;;;;;;11.70;4.57;;;5.00;99.90;;;;;;5008170;28;20054;-43
2024/02/13 01:22:53;;;;;;;9.43;4.80;;;5.00;99.90;;;;;;5007377;28;20077;-49
2024/02/13 01:25:23;;;;;;;9.70;4.95;;;5.00;99.90;;;;;;5006928;28;20046;-46
2024/02/13 01:27:49;;;;;;;11.70;4.80;;;5.00;99.90;;;;;;5008141;28;20133;-50
2024/02/13 01:30:16;;;;;;;9.57;4.75;;;5.00;99.90;;;;;;5007853;28;20045;-46
2024/02/13 01:32:43;;;;;;;8.38;4.60;;;5.00;99.90;;;;;;5005089;28;20701;-46
2024/02/13 01:35:11;;;;;;;8.63;4.78;;;5.00;99.90;;;;;;5007777;28;20396;-45
2024/02/13 01:37:39;;;;;;;11.75;5.00;;;5.00;99.90;;;;;;5008140;28;20064;-44
2024/02/13 01:40:07;;;;;;;10.90;4.90;;;5.00;99.90;;;;;;5008463;28;20940;-49
2024/02/13 01:42:38;;;;;;;12.15;5.13;;;5.00;99.90;;;;;;5007310;28;20056;-45
2024/02/13 01:45:13;;;;;;;9.80;4.70;;;5.00;99.90;;;;;;5006536;28;20061;-51
2024/02/13 01:47:53;;;;;;;10.10;4.70;;;5.00;99.90;;;;;;5004300;28;20061;-44
2024/02/13 01:50:21;;;;;;;8.90;4.90;;;5.10;99.90;;;;;;5007225;28;20426;-42
2024/02/13 01:52:50;;;;;;;10.48;4.70;;;5.10;99.90;;;;;;5004199;28;20145;-47
2024/02/13 01:55:20;;;;;;;10.65;4.82;;;5.10;99.90;;;;;;5000139;28;20137;-48
2024/02/13 01:57:49;;;;;;;9.80;4.75;;;5.20;99.90;;;;;;5002581;28;20442;-48
2024/02/13 02:00:16;;;;;;;11.38;4.82;;;5.20;99.90;;;;;;5011484;28;20137;-52
2024/02/13 02:02:47;;;;;;;8.27;4.38;;;5.20;99.90;;;;;;5012553;28;20038;-46
2024/02/13 02:05:14;;;;;;;9.45;4.43;;;5.30;99.90;;;;;;5011166;28;20062;-48
2024/02/13 02:07:50;;;;;;;11.65;4.70;;;5.40;99.90;;;;;;5010573;28;20037;-48
2024/02/13 02:10:17;;;;;;;13.27;4.43;;;5.40;99.90;;;;;;5006290;28;20135;-48
2024/02/13 02:12:49;;;;;;;11.00;4.63;;;5.40;99.90;;;;;;5004523;28;20443;-46
2024/02/13 02:15:17;;;;;;;11.15;5.20;;;5.40;99.90;;;;;;5008122;28;20053;-47
2024/02/13 02:17:53;;;;;;;12.95;4.00;;;5.30;99.90;;;;;;5002965;28;20078;-49
2024/02/13 02:20:24;;;;;;;11.80;4.53;;;5.30;99.90;;;;;;5004427;28;20507;-49
2024/02/13 02:22:51;;;;;;;9.57;4.57;;;5.30;99.90;;;;;;5002221;28;20141;-45
2024/02/13 02:25:24;;;;;;;9.38;4.18;;;5.30;99.90;;;;;;5006242;28;20088;-48
2024/02/13 02:28:11;;;;;;;8.30;4.28;;;5.40;99.90;;;;;;5003171;28;20060;-47
2024/02/13 02:30:51;;;;;;;13.30;5.90;;;5.40;99.90;;;;;;5002809;28;20230;-47
2024/02/13 02:33:17;;;;;;;9.32;4.07;;;5.30;99.90;;;;;;5001579;28;20062;-44
2024/02/13 02:35:45;;;;;;;9.90;4.80;;;5.30;99.90;;;;;;5006102;28;20041;-52
2024/02/13 02:38:13;;;;;;;11.57;5.28;;;5.20;99.90;;;;;;5004949;28;20152;-51
2024/02/13 02:40:43;;;;;;;12.23;5.72;;;5.30;99.90;;;;;;5004069;28;20073;-45
2024/02/13 02:43:10;;;;;;;15.63;5.57;;;5.20;99.90;;;;;;5003709;28;20073;-46
2024/02/13 02:45:37;;;;;;;12.18;5.82;;;5.20;99.90;;;;;;5003273;28;20084;-49
2024/02/13 02:48:05;;;;;;;15.07;5.90;;;5.10;99.90;;;;;;5004212;28;20581;-46
2024/02/13 02:50:32;;;;;;;12.68;5.63;;;4.90;99.90;;;;;;5005142;28;20239;-48
2024/02/13 02:52:59;;;;;;;15.35;6.13;;;4.90;99.90;;;;;;4986623;28;20061;-47
2024/02/13 02:55:26;;;;;;;14.43;5.50;;;4.70;99.90;;;;;;5006458;28;20537;-45
2024/02/13 02:57:53;;;;;;;10.90;5.35;;;4.70;99.90;;;;;;5002287;28;20495;-47
2024/02/13 03:00:21;;;;;;;13.02;5.55;;;4.60;99.90;;;;;;5005568;28;20054;-42
2024/02/13 03:02:55;;;;;;;9.32;4.95;;;4.50;99.90;;;;;;5003090;28;20081;-45
2024/02/13 03:05:23;;;;;;;13.50;5.38;;;4.50;99.90;;;;;;5005431;28;20450;-49
2024/02/13 03:07:50;;;;;;;14.63;5.45;;;4.40;99.90;;;;;;5004372;28;20050;-52
2024/02/13 03:10:17;;;;;;;11.60;5.32;;;4.40;99.90;;;;;;5010953;28;20110;-48
2024/02/13 03:12:44;;;;;;;14.57;5.30;;;4.40;99.90;;;;;;4995601;28;20081;-48
2024/02/13 03:15:12;;;;;;;13.27;5.72;;;4.30;99.90;;;;;;5012183;28;20543;-47
2024/02/13 03:17:39;;;;;;;11.93;6.05;;;4.30;99.90;;;;;;5008697;28;20046;-47
2024/02/13 03:20:10;;;;;;;10.80;5.38;;;4.20;99.90;;;;;;5012721;28;20125;-51
2024/02/13 03:22:52;;;;;;;8.93;5.10;;;4.20;99.90;;;;;;5014438;28;20084;-47
2024/02/13 03:25:19;;;;;;;10.20;4.78;;;4.30;99.90;;;;;;5017019;28;20049;-45
2024/02/13 03:28:05;;;;;;;10.52;4.78;;;4.30;99.90;;;;;;5016628;28;20449;-51
2024/02/13 03:30:33;;;;;;;10.18;4.95;;;4.30;99.90;;;;;;5014342;28;20041;-47
2024/02/13 03:33:00;;;;;;;13.32;5.53;;;4.20;99.90;;;;;;5014517;28;20038;-47
2024/02/13 03:35:30;;;;;;;11.27;4.93;;;4.20;99.90;;;;;;5012546;28;20038;-47
2024/02/13 03:37:57;;;;;;;12.27;5.40;;;4.20;99.90;;;;;;5012335;28;20073;-48
2024/02/13 03:40:25;;;;;;;8.18;5.05;;;4.10;99.90;;;;;;5010570;28;20408;-45
2024/02/13 03:42:52;;;;;;;9.80;4.53;;;4.10;99.90;;;;;;5006323;28;20062;-48
2024/02/13 03:45:19;;;;;;;13.38;5.60;;;4.10;99.90;;;;;;5009314;28;20073;-46
2024/02/13 03:47:57;;;;;;;11.95;5.30;;;4.10;99.90;;;;;;5004233;28;20484;-46
2024/02/13 03:50:26;;;;;;;14.40;5.65;;;4.10;99.90;;;;;;5010090;28;20132;-50
2024/02/13 03:52:53;;;;;;;15.55;5.30;;;4.10;99.90;;;;;;5008078;28;20518;-51
2024/02/13 03:55:20;;;;;;;12.05;5.32;;;4.10;99.90;;;;;;5009277;28;20045;-46
2024/02/13 03:57:47;;;;;;;12.68;5.65;;;4.00;99.90;;;;;;5007971;28;20131;-54
2024/02/13 04:00:14;;;;;;;15.48;5.57;;;4.00;99.90;;;;;;5011989;28;20177;-49
2024/02/13 04:02:41;;;;;;;10.60;5.20;;;4.00;99.90;;;;;;5011553;28;20123;-47
2024/02/13 04:05:09;;;;;;;14.25;5.40;;;4.00;99.90;;;;;;5014921;28;20038;-47
2024/02/13 04:07:36;;;;;;;15.68;5.05;;;4.00;99.90;;;;;;5013392;28;20065;-45
2024/02/13 04:10:03;;;;;;;9.80;5.22;;;4.00;99.90;;;;;;5007173;28;20057;-50
2024/02/13 04:12:35;;;;;;;12.32;5.47;;;4.00;99.90;;;;;;5009047;28;20507;-42
2024/02/13 04:15:03;;;;;;;12.07;6.38;;;4.00;99.90;;;;;;5006783;28;20120;-47
2024/02/13 04:17:33;;;;;;;11.03;5.70;;;4.00;99.90;;;;;;5007731;28;20045;-46
2024/02/13 04:20:03;;;;;;;11.05;5.93;;;3.90;99.90;;;;;;5010217;28;20426;-49
2024/02/13 04:22:30;;;;;;;13.18;6.63;;;3.90;99.90;;;;;;5013753;28;20056;-51
2024/02/13 04:24:57;;;;;;;16.95;7.10;;;3.90;99.90;;;;;;5007952;28;20381;-47
2024/02/13 04:27:24;;;;;;;12.75;6.85;;;3.90;99.90;;;;;;5005215;28;20054;-53
2024/02/13 04:29:52;;;;;;;17.35;7.18;;;3.90;99.90;;;;;;5004518;28;20149;-49
2024/02/13 04:32:19;;;;;;;13.65;7.65;;;3.90;99.90;;;;;;5006130;28;20049;-50
2024/02/13 04:34:46;;;;;;;12.60;7.50;;;3.80;99.90;;;;;;5007091;28;20439;-46
2024/02/13 04:37:14;;;;;;;14.43;7.70;;;3.80;99.90;;;;;;5007843;28;20054;-48
2024/02/13 04:39:41;;;;;;;18.23;7.60;;;3.70;99.90;;;;;;5005651;28;20065;-47
2024/02/13 04:42:11;;;;;;;16.42;8.32;;;3.70;99.90;;;;;;5007624;28;20049;-49
2024/02/13 04:44:38;;;;;;;15.40;7.70;;;3.70;99.90;;;;;;5006679;28;20454;-54
2024/02/13 04:47:06;;;;;;;14.45;8.25;;;3.60;99.90;;;;;;5005368;28;20037;-50
2024/02/13 04:49:33;;;;;;;13.98;7.88;;;3.70;99.90;;;;;;5009526;28;20272;-49
2024/02/13 04:52:00;;;;;;;16.55;7.60;;;3.70;99.90;;;;;;5013907;28;20888;-55
2024/02/13 04:54:27;;;;;;;15.13;8.10;;;3.60;99.90;;;;;;5007846;28;20046;-49
2024/02/13 04:56:55;;;;;;;23.55;8.38;;;3.50;99.90;;;;;;5002625;28;20050;-48
2024/02/13 04:59:22;;;;;;;14.75;7.72;;;3.60;99.90;;;;;;5012551;28;20045;-44
2024/02/13 05:01:52;;;;;;;15.82;7.93;;;3.60;99.90;;;;;;5008092;28;20056;-49
2024/02/13 05:09:31;;;;;;;17.98;9.05;;;3.50;99.90;;;;;;5005238;28;20054;-50
2024/02/13 05:11:58;;;;;;;20.80;8.07;;;3.40;99.90;;;;;;5003900;28;20046;-50
2024/02/13 05:14:25;;;;;;;18.13;9.32;;;3.40;99.90;;;;;;5005558;28;20069;-45
2024/02/13 05:16:52;;;;;;;17.02;8.85;;;3.40;99.90;;;;;;5003665;28;20395;-48
2024/02/13 05:19:20;;;;;;;20.58;9.30;;;3.30;99.90;;;;;;5005565;28;20056;-47
2024/02/13 05:21:50;;;;;;;18.70;9.02;;;3.30;99.90;;;;;;5004684;28;20503;-55
2024/02/13 05:24:17;;;;;;;20.27;9.60;;;3.30;99.90;;;;;;5006864;28;20088;-45
2024/02/13 05:26:45;;;;;;;17.67;9.77;;;3.30;99.90;;;;;;5005110;28;20403;-52
2024/02/13 05:29:12;;;;;;;18.95;9.40;;;3.30;99.90;;;;;;5005991;28;20046;-52
2024/02/13 05:31:39;;;;;;;18.00;9.52;;;3.30;99.90;;;;;;5002315;28;20038;-49
2024/02/13 05:34:06;;;;;;;17.27;8.98;;;3.20;99.90;;;;;;5006620;28;20038;-51
2024/02/13 05:36:33;;;;;;;23.13;9.18;;;3.20;99.90;;;;;;5002041;28;20057;-50
2024/02/13 05:39:02;;;;;;;21.77;10.13;;;3.20;99.90;;;;;;5005279;28;20046;-51
2024/02/13 05:41:29;;;;;;;18.98;9.65;;;3.20;99.90;;;;;;5005810;28;20141;-47
2024/02/13 05:43:56;;;;;;;17.15;8.73;;;3.10;99.90;;;;;;5006006;28;20140;-52
2024/02/13 05:46:24;;;;;;;21.27;9.65;;;3.10;99.90;;;;;;5000836;28;20125;-44
2024/02/13 05:48:54;;;;;;;28.52;10.30;;;3.10;99.90;;;;;;5005909;28;20089;-47
2024/02/13 05:51:21;;;;;;;26.15;9.98;;;3.00;99.90;;;;;;5005893;28;20135;-44
2024/02/13 05:53:48;;;;;;;20.35;10.38;;;3.10;99.90;;;;;;4998342;28;20560;-47
2024/02/13 05:56:16;;;;;;;23.95;11.10;;;3.10;99.90;;;;;;5005912;28;20125;-54
2024/02/13 05:58:55;;;;;;;23.67;10.85;;;3.10;99.90;;;;;;5000035;28;20042;-47
2024/02/13 06:01:25;;;;;;;27.63;12.43;;;3.10;99.90;;;;;;5007434;28;20061;-53
2024/02/13 06:03:55;;;;;;;21.25;10.32;;;3.10;99.90;;;;;;5007879;28;20049;-49
2024/02/13 06:06:23;;;;;;;18.10;9.60;;;3.10;99.90;;;;;;5008380;28;20590;-51
2024/02/13 06:08:54;;;;;;;23.85;11.35;;;3.10;99.90;;;;;;5007248;28;20044;-51
2024/02/13 06:11:23;;;;;;;21.25;10.98;;;3.00;99.90;;;;;;5006405;28;20491;-50
2024/02/13 06:13:51;;;;;;;23.75;11.05;;;3.00;99.90;;;;;;5004984;28;20117;-52
2024/02/13 06:16:18;;;;;;;19.38;10.90;;;3.00;99.90;;;;;;5007071;28;20794;-52
2024/02/13 06:18:46;;;;;;;26.88;12.27;;;3.00;99.90;;;;;;5006604;28;20042;-49
2024/02/13 06:21:17;;;;;;;28.13;12.52;;;3.00;99.90;;;;;;5002337;28;20060;-48
2024/02/13 06:23:49;;;;;;;24.45;11.65;;;3.00;99.90;;;;;;5006310;28;20050;-50
2024/02/13 06:26:16;;;;;;;29.13;11.98;;;3.00;99.90;;;;;;5007887;28;20077;-47
2024/02/13 06:28:43;;;;;;;22.13;12.20;;;3.00;99.90;;;;;;5006001;28;20050;-47
2024/02/13 06:31:10;;;;;;;19.73;11.43;;;3.00;99.90;;;;;;5007300;28;20048;-50
2024/02/13 06:33:38;;;;;;;22.42;12.32;;;2.90;99.90;;;;;;5006535;28;20112;-50
2024/02/13 06:36:06;;;;;;;25.95;14.40;;;2.90;99.90;;;;;;5003388;28;20042;-51
2024/02/13 06:38:38;;;;;;;28.73;13.60;;;3.00;99.90;;;;;;5001665;28;20112;-46
2024/02/13 06:41:05;;;;;;;29.00;14.15;;;2.90;99.90;;;;;;5002261;28;20080;-51
2024/02/13 06:43:33;;;;;;;30.35;15.70;;;2.90;99.90;;;;;;5004501;28;20054;-48
2024/02/13 06:46:01;;;;;;;25.33;14.77;;;2.90;99.90;;;;;;5009237;28;20064;-51
2024/02/13 06:48:29;;;;;;;29.52;15.98;;;2.90;99.90;;;;;;5009586;28;20218;-47
2024/02/13 06:50:57;;;;;;;29.20;15.10;;;3.00;99.90;;;;;;5008913;28;20511;-46
2024/02/13 06:53:24;;;;;;;31.00;15.38;;;3.10;99.90;;;;;;5008743;28;20064;-50
2024/02/13 06:55:51;;;;;;;27.55;16.80;;;3.10;99.90;;;;;;5004408;28;20487;-51
2024/02/13 06:58:18;;;;;;;27.60;15.68;;;3.10;99.90;;;;;;5008366;28;20069;-47
2024/02/13 07:00:46;;;;;;;30.00;14.80;;;3.10;99.90;;;;;;5009098;28;20057;-48
2024/02/13 07:03:14;;;;;;;26.67;14.85;;;3.20;99.90;;;;;;5009450;28;20140;-49
2024/02/13 07:05:41;;;;;;;23.52;14.77;;;3.20;99.90;;;;;;5010499;28;20125;-46
2024/02/13 07:08:10;;;;;;;24.00;13.88;;;3.20;99.90;;;;;;5011328;28;20045;-50
2024/02/13 07:10:36;;;;;;;24.63;13.63;;;3.30;99.90;;;;;;5010753;28;20070;-49
2024/02/13 07:13:16;;;;;;;27.45;14.52;;;3.30;99.90;;;;;;4988380;28;20156;-48
2024/02/13 07:15:43;;;;;;;33.00;13.30;;;3.50;99.90;;;;;;4985426;28;20432;-48
2024/02/13 07:18:12;;;;;;;28.90;13.40;;;3.60;99.90;;;;;;5005831;28;20074;-51
2024/02/13 07:20:39;;;;;;;27.67;12.38;;;3.60;99.90;;;;;;5008130;28;20426;-50
2024/02/13 07:23:06;;;;;;;27.38;13.85;;;3.70;99.90;;;;;;5003793;28;20061;-48
2024/02/13 07:25:34;;;;;;;26.83;14.20;;;3.70;99.90;;;;;;5009871;28;20053;-46
2024/02/13 07:28:01;;;;;;;31.30;13.55;;;3.80;99.90;;;;;;5009444;28;20056;-51
2024/02/13 07:30:29;;;;;;;23.63;13.60;;;3.90;99.90;;;;;;5011639;28;20064;-48
2024/02/13 07:32:56;;;;;;;28.27;13.90;;;3.90;99.90;;;;;;5011415;28;20119;-47
2024/02/13 07:35:24;;;;;;;26.25;14.25;;;3.90;99.90;;;;;;5011922;28;20034;-48
2024/02/13 07:37:58;;;;;;;23.85;13.77;;;3.90;99.90;;;;;;5009152;28;20574;-48
2024/02/13 07:40:26;;;;;;;29.85;14.95;;;3.90;99.90;;;;;;5006770;28;20073;-53
2024/02/13 07:42:53;;;;;;;28.45;14.25;;;3.90;99.90;;;;;;5007280;28;20046;-50
2024/02/13 07:45:21;;;;;;;25.20;13.20;;;3.90;99.90;;;;;;4992380;28;20056;-51
2024/02/13 07:48:01;;;;;;;24.83;14.13;;;3.90;99.90;;;;;;5008513;28;20049;-49
2024/02/13 07:50:28;;;;;;;29.25;14.45;;;4.00;99.90;;;;;;5009884;28;20066;-50
2024/02/13 07:52:56;;;;;;;26.38;13.88;;;3.90;99.90;;;;;;5009097;28;20142;-51
2024/02/13 07:55:22;;;;;;;32.95;14.55;;;4.00;99.90;;;;;;5008804;28;20042;-51
2024/02/13 07:57:51;;;;;;;31.30;15.18;;;4.10;99.90;;;;;;5007399;28;20042;-50
2024/02/13 08:00:20;;;;;;;23.17;13.18;;;4.20;99.90;;;;;;5008447;28;20406;-49
2024/02/13 08:02:49;;;;;;;29.63;14.35;;;4.30;99.90;;;;;;5008869;28;20057;-51
2024/02/13 08:05:16;;;;;;;28.48;15.13;;;4.30;99.90;;;;;;5008879;28;20049;-43
2024/02/13 08:07:44;;;;;;;28.45;14.68;;;4.40;99.90;;;;;;5008407;28;20046;-49
2024/02/13 08:10:11;;;;;;;28.48;13.15;;;4.50;99.90;;;;;;5008206;28;20038;-52
2024/02/13 08:12:38;;;;;;;27.55;13.65;;;4.50;99.90;;;;;;5009772;28;20073;-47
2024/02/13 08:15:09;;;;;;;25.98;13.30;;;4.60;99.90;;;;;;5011018;28;20054;-46
2024/02/13 08:17:36;;;;;;;32.00;13.88;;;4.70;99.90;;;;;;5013606;28;20179;-44
2024/02/13 08:20:04;;;;;;;25.15;12.88;;;4.80;99.90;;;;;;5013274;28;20072;-47
2024/02/13 08:22:31;;;;;;;20.63;13.00;;;4.90;99.90;;;;;;5014025;28;20052;-46
2024/02/13 08:25:00;;;;;;;21.77;12.70;;;4.90;99.90;;;;;;5013449;28;20134;-45
2024/02/13 08:27:29;;;;;;;28.35;14.88;;;4.90;99.90;;;;;;5008188;28;20068;-47
2024/02/13 08:29:56;;;;;;;24.50;12.80;;;5.10;99.90;;;;;;5005783;28;20287;-48
2024/02/13 08:32:24;;;;;;;22.38;13.30;;;5.30;99.90;;;;;;5007659;28;20054;-54
2024/02/13 08:34:52;;;;;;;22.85;12.15;;;5.50;99.90;;;;;;5010583;28;20038;-46
2024/02/13 08:37:20;;;;;;;25.02;13.95;;;5.70;99.90;;;;;;5010597;28;20466;-51
2024/02/13 08:39:47;;;;;;;25.35;12.82;;;5.60;99.90;;;;;;5010960;28;20065;-48
2024/02/13 08:42:14;;;;;;;20.85;12.07;;;5.60;99.90;;;;;;5011020;28;20427;-47
2024/02/13 08:44:42;;;;;;;30.63;14.77;;;5.70;99.90;;;;;;5011017;28;20053;-58
2024/02/13 08:47:10;;;;;;;20.15;11.95;;;5.60;99.90;;;;;;5007821;28;20049;-48
2024/02/13 08:49:38;;;;;;;23.02;11.48;;;5.60;99.90;;;;;;5009636;28;20432;-48
2024/02/13 08:52:07;;;;;;;26.38;12.45;;;5.70;99.90;;;;;;5007642;28;20042;-46
2024/02/13 08:54:34;;;;;;;28.45;12.63;;;5.90;99.90;;;;;;5006101;28;20052;-46
2024/02/13 08:57:01;;;;;;;25.73;12.43;;;5.90;99.90;;;;;;5003776;28;20418;-47
2024/02/13 08:59:31;;;;;;;23.67;10.95;;;6.10;99.90;;;;;;4992691;28;20470;-47
2024/02/13 09:01:58;;;;;;;22.85;11.68;;;6.20;99.90;;;;;;5005981;28;20052;-51
2024/02/13 09:04:48;;;;;;;23.08;11.52;;;6.20;99.90;;;;;;5005875;28;20139;-51
2024/02/13 09:07:33;;;;;;;24.63;11.30;;;6.30;99.90;;;;;;5006914;28;20207;-45
2024/02/13 09:10:12;;;;;;;24.33;11.73;;;6.40;99.90;;;;;;5011525;28;20135;-43
2024/02/13 09:12:41;;;;;;;22.58;11.00;;;6.40;99.90;;;;;;5015033;28;20042;-50
2024/02/13 09:15:11;;;;;;;18.52;10.48;;;6.60;99.90;;;;;;5009990;28;20120;-46
2024/02/13 09:17:43;;;;;;;22.00;10.40;;;6.50;99.90;;;;;;5001038;28;20049;-51
2024/02/13 09:20:15;;;;;;;18.02;10.77;;;6.60;99.90;;;;;;5007228;28;20060;-50
2024/02/13 09:22:44;;;;;;;20.42;11.15;;;6.70;99.90;;;;;;5006209;28;20135;-49
2024/02/13 09:25:12;;;;;;;22.50;10.13;;;6.80;99.90;;;;;;5008658;28;20042;-46
2024/02/13 09:27:48;;;;;;;19.60;10.10;;;7.00;99.90;;;;;;5002681;28;20053;-48
2024/02/13 09:30:17;;;;;;;20.33;10.63;;;7.10;99.90;;;;;;5001310;28;20046;-45
2024/02/13 09:32:46;;;;;;;21.92;10.93;;;7.30;99.90;;;;;;5005118;28;20038;-50
2024/02/13 09:35:14;;;;;;;20.77;10.57;;;7.50;99.90;;;;;;5006533;28;20065;-46
2024/02/13 09:37:49;;;;;;;21.05;11.23;;;7.70;99.90;;;;;;5006217;28;20562;-49
2024/02/13 09:40:18;;;;;;;22.80;11.15;;;8.00;99.90;;;;;;5006656;28;20033;-47
2024/02/13 09:42:46;;;;;;;19.17;10.30;;;7.90;99.90;;;;;;4998360;28;20046;-45
2024/02/13 09:45:14;;;;;;;19.80;10.35;;;8.20;99.90;;;;;;5007353;28;20476;-43
2024/02/13 09:47:41;;;;;;;18.35;8.90;;;8.40;99.90;;;;;;5010566;28;20060;-50
2024/02/13 09:50:12;;;;;;;19.77;10.43;;;8.60;99.90;;;;;;5009894;28;20062;-48
2024/02/13 09:52:49;;;;;;;17.25;9.27;;;8.70;99.90;;;;;;5005904;28;20510;-46
2024/02/13 09:55:18;;;;;;;14.13;8.45;;;8.50;99.90;;;;;;5000109;28;20114;-43
2024/02/13 09:57:48;;;;;;;14.80;8.07;;;8.70;99.90;;;;;;5004898;28;20049;-43
2024/02/13 10:00:18;;;;;;;16.17;7.25;;;8.90;99.90;;;;;;5006152;28;20053;-51
2024/02/13 10:02:49;;;;;;;13.93;6.78;;;9.00;99.90;;;;;;5006509;28;20065;-45
2024/02/13 10:05:17;;;;;;;19.25;7.65;;;9.00;99.90;;;;;;5006511;28;20058;-48
2024/02/13 10:07:45;;;;;;;15.20;7.38;;;8.80;99.90;;;;;;5005708;28;20052;-47
2024/02/13 10:10:12;;;;;;;13.48;6.90;;;8.60;99.90;;;;;;5005914;28;20069;-53
2024/02/13 10:13:00;;;;;;;15.00;7.00;;;8.40;99.90;;;;;;5004627;28;20378;-48
2024/02/13 10:15:42;;;;;;;13.73;6.57;;;8.40;99.90;;;;;;5002585;28;20077;-47
2024/02/13 10:18:11;;;;;;;11.57;6.10;;;8.30;99.90;;;;;;4987059;28;20058;-44
2024/02/13 10:20:43;;;;;;;13.52;6.32;;;8.40;99.90;;;;;;5001315;28;20050;-53
2024/02/13 10:23:14;;;;;;;;;;;8.60;99.90;;;;;;5004747;28;20049;-52
2024/02/13 10:25:44;;;;;;;13.15;5.95;;;8.70;99.90;;;;;;4998245;28;20151;-46
2024/02/13 10:28:12;;;;;;;11.40;5.63;;;8.60;99.90;;;;;;5005576;28;20050;-52
2024/02/13 10:30:39;;;;;;;13.32;5.85;;;8.80;99.90;;;;;;5005371;28;20115;-54
2024/02/13 10:33:06;;;;;;;13.40;5.55;;;8.70;99.90;;;;;;5004524;28;20041;-48
2024/02/13 10:35:34;;;;;;;10.70;5.40;;;8.50;99.90;;;;;;5005278;28;20049;-45
2024/02/13 10:38:07;;;;;;;16.50;5.53;;;8.50;99.90;;;;;;5006204;28;20371;-44
2024/02/13 10:40:39;;;;;;;9.40;4.95;;;8.30;99.90;;;;;;5004782;28;20480;-46
2024/02/13 10:43:08;;;;;;;;;;;8.10;99.90;;;;;;5006051;28;20132;-46
2024/02/13 10:45:36;;;;;;;10.07;4.82;;;8.00;99.90;;;;;;4988085;28;20453;-47
2024/02/13 10:48:37;;;;;;;10.02;5.07;;;7.90;99.90;;;;;;5004542;28;20056;-50
2024/02/13 10:51:07;;;;;;;9.85;5.22;;;8.10;99.90;;;;;;5005768;28;20601;-49
2024/02/13 10:53:34;;;;;;;10.90;5.32;;;8.10;99.90;;;;;;5002268;28;20046;-47
2024/02/13 10:56:02;;;;;;;13.57;5.45;;;8.20;99.90;;;;;;5007087;28;20078;-54
2024/02/13 10:58:31;;;;;;;12.88;6.70;;;8.10;99.90;;;;;;5008042;28;20167;-50
2024/02/13 11:01:02;;;;;;;13.45;6.88;;;8.30;99.90;;;;;;5007753;28;20049;-50
2024/02/13 11:03:30;;;;;;;14.10;7.15;;;8.40;99.90;;;;;;5006917;28;20403;-45
2024/02/13 11:05:57;;;;;;;15.07;8.32;;;8.30;99.90;;;;;;5007972;28;20177;-50
2024/02/13 11:08:24;;;;;;;16.80;7.20;;;8.30;99.90;;;;;;5007710;28;20037;-47
2024/02/13 11:10:53;;;;;;;15.48;7.47;;;8.30;99.90;;;;;;5004285;28;20064;-49
2024/02/13 11:13:23;;;;;;;15.52;7.43;;;8.40;99.90;;;;;;4998446;28;20038;-50
2024/02/13 11:15:56;;;;;;;13.13;6.18;;;8.30;99.90;;;;;;5000065;28;20152;-52
2024/02/13 11:18:52;;;;;;;8.18;5.32;;;8.30;99.90;;;;;;5003226;28;20054;-48
2024/02/13 11:21:26;;;;;;;12.50;5.55;;;8.20;99.90;;;;;;5007680;28;20046;-48
2024/02/13 11:24:22;;;;;;;15.18;5.38;;;8.10;99.90;;;;;;5003415;28;20077;-45
2024/02/13 11:26:49;;;;;;;12.40;5.55;;;8.20;99.90;;;;;;5002927;28;20053;-53
2024/02/13 11:29:20;;;;;;;14.40;5.93;;;8.20;99.90;;;;;;5003604;28;20115;-51
2024/02/13 11:31:58;;;;;;;11.40;5.10;;;8.50;99.90;;;;;;5014353;28;20076;-48
2024/02/13 11:34:41;;;;;;;9.57;5.20;;;9.20;99.90;;;;;;5016711;28;20045;-49
2024/02/13 11:37:20;;;;;;;8.65;4.47;;;9.60;99.90;;;;;;5012497;28;20144;-49
2024/02/13 11:39:48;;;;;;;6.78;4.20;;;10.40;99.90;;;;;;5011219;28;20103;-51
2024/02/13 11:42:19;;;;;;;8.00;3.70;;;10.40;99.90;;;;;;5005117;28;20050;-48
2024/02/13 11:44:48;;;;;;;6.53;3.38;;;10.20;99.90;;;;;;5006935;28;20142;-52
2024/02/13 11:47:19;;;;;;;10.60;3.80;;;9.90;99.90;;;;;;5014605;28;20050;-42
2024/02/13 11:49:50;;;;;;;10.93;3.88;;;9.80;99.90;;;;;;5014232;28;20481;-51
2024/02/13 11:52:17;;;;;;;8.60;3.75;;;9.70;99.90;;;;;;5014697;28;20065;-46
2024/02/13 11:54:46;;;;;;;9.27;3.25;;;9.80;99.90;;;;;;5007143;28;20065;-45
2024/02/13 11:57:19;;;;;;;7.13;3.30;;;9.70;99.90;;;;;;5015447;28;20053;-48
2024/02/13 12:00:05;;;;;;;6.72;3.45;;;9.70;99.90;;;;;;5009930;28;20041;-47
2024/02/13 12:02:54;;;;;;;8.88;3.92;;;9.60;99.90;;;;;;5015944;28;20061;-47
2024/02/13 12:05:26;;;;;;;6.82;3.45;;;9.70;99.90;;;;;;5015804;28;20077;-45
2024/02/13 12:07:54;;;;;;;6.72;3.45;;;9.80;99.90;;;;;;5015746;28;20056;-43
2024/02/13 12:10:21;;;;;;;9.45;3.40;;;10.40;99.90;;;;;;5013818;28;20066;-46
2024/02/13 12:12:49;;;;;;;7.25;3.30;;;11.10;99.90;;;;;;5014778;28;20048;-46
2024/02/13 12:15:22;;;;;;;4.93;2.85;;;11.80;99.90;;;;;;5010177;28;20057;-48
2024/02/13 12:17:57;;;;;;;4.97;2.80;;;12.10;99.90;;;;;;5011115;28;20053;-50
2024/02/13 12:20:29;;;;;;;5.10;2.80;;;13.10;99.90;;;;;;4985962;28;20046;-47
2024/02/13 12:22:58;;;;;;;6.53;3.30;;;13.80;99.90;;;;;;5009839;28;20440;-49
2024/02/13 12:25:25;;;;;;;8.02;3.35;;;14.20;99.90;;;;;;5012415;28;20038;-51
2024/02/13 12:28:00;;;;;;;7.50;3.10;;;13.20;99.90;;;;;;5009048;28;20061;-46
2024/02/13 12:30:27;;;;;;;6.00;3.15;;;12.60;99.90;;;;;;5009690;28;20117;-48
2024/02/13 12:32:54;;;;;;;4.40;3.22;;;12.10;99.90;;;;;;5009295;28;20042;-50
2024/02/13 12:35:32;;;;;;;6.80;3.20;;;11.70;99.90;;;;;;5010042;28;20514;-46
2024/02/13 12:38:14;;;;;;;6.00;3.20;;;12.00;99.90;;;;;;5008991;28;20049;-46
2024/02/13 12:40:44;;;;;;;5.80;3.70;;;12.30;99.90;;;;;;5008825;28;20044;-50
2024/02/13 12:43:15;;;;;;;6.70;3.10;;;13.00;99.90;;;;;;5008648;28;20045;-48
2024/02/13 12:45:43;;;;;;;6.38;3.40;;;14.20;99.90;;;;;;5010403;28;20124;-47
2024/02/13 12:48:10;;;;;;;7.47;3.70;;;15.70;99.90;;;;;;5009938;28;20120;-47
2024/02/13 12:50:37;;;;;;;5.38;3.45;;;16.50;99.90;;;;;;5001387;28;20503;-46
2024/02/13 12:53:07;;;;;;;11.45;4.45;;;17.70;99.90;;;;;;5008896;28;21048;-48
2024/02/13 12:55:37;;;;;;;5.75;4.30;;;18.30;99.90;;;;;;5013540;28;20056;-49
2024/02/13 12:58:07;;;;;;;5.68;4.55;;;18.80;99.90;;;;;;5005637;28;20104;-49
2024/02/13 13:00:45;;;;;;;7.43;4.70;;;17.80;98.10;;;;;;5006886;28;20050;-49
2024/02/13 13:03:14;;;;;;;5.35;4.65;;;16.60;98.60;;;;;;4985210;28;20306;-46